Time;durP1;ratioP1;P1;durP2;ratioP2;P2;SDS_P1;SDS_P2;PMS_P1;PMS_P2;Temp;Humidity;BMP_temperature;BMP_pressure;BME280_temperature;BME280_humidity;BME280_pressure;Samples;Min_cycle;Max_cycle;Signal;HPM_P1;HPM_P2
2022/03/17 00:00:55;;;;;;;24.85;16.20;;;;;;;;;;4971534;28;92410;-69
2022/03/17 00:03:21;;;;;;;22.30;16.13;;;;;;;;;;4956240;28;92268;-70
2022/03/17 00:05:48;;;;;;;21.33;16.85;;;;;;;;;;4963715;28;93645;-70
2022/03/17 00:08:15;;;;;;;21.73;16.42;;;;;;;;;;4974596;28;92594;-70
2022/03/17 00:10:42;;;;;;;26.27;16.27;;;;;;;;;;4966117;28;95855;-69
2022/03/17 00:13:08;;;;;;;22.63;16.00;;;;;;;;;;4967450;28;92523;-69
2022/03/17 00:15:34;;;;;;;23.45;17.38;;;;;;;;;;4972336;28;93566;-69
2022/03/17 00:18:01;;;;;;;20.40;16.25;;;;;;;;;;4969948;28;93568;-69
2022/03/17 00:20:27;;;;;;;23.75;16.77;;;;;;;;;;4968209;28;92536;-69
2022/03/17 00:22:53;;;;;;;24.08;17.67;;;;;;;;;;4967544;28;94532;-69
2022/03/17 00:25:19;;;;;;;25.98;16.52;;;;;;;;;;4970164;28;93910;-69
2022/03/17 00:27:46;;;;;;;24.00;16.40;;;;;;;;;;4971386;28;91666;-69
2022/03/17 00:30:12;;;;;;;29.50;18.10;;;;;;;;;;4974176;28;92379;-69
2022/03/17 00:32:38;;;;;;;28.95;16.75;;;;;;;;;;4969363;28;92605;-70
2022/03/17 00:37:51;;;;;;;22.92;16.02;;;;;;;;;;4971365;28;93387;-70
2022/03/17 00:40:17;;;;;;;31.55;17.30;;;;;;;;;;4970188;28;92521;-70
2022/03/17 00:42:44;;;;;;;23.10;17.00;;;;;;;;;;4971533;28;93082;-70
2022/03/17 00:45:11;;;;;;;24.65;16.50;;;;;;;;;;4971260;28;94137;-70
2022/03/17 00:47:37;;;;;;;25.20;17.15;;;;;;;;;;4968086;28;92694;-70
2022/03/17 00:50:04;;;;;;;25.20;17.13;;;;;;;;;;4970430;28;94259;-70
2022/03/17 00:52:30;;;;;;;23.90;16.33;;;;;;;;;;4965267;28;92941;-70
2022/03/17 00:54:57;;;;;;;30.10;16.73;;;;;;;;;;4971208;28;95978;-70
2022/03/17 00:57:24;;;;;;;23.80;16.17;;;;;;;;;;4971510;28;92482;-70
2022/03/17 00:59:50;;;;;;;25.73;16.42;;;;;;;;;;4970209;28;94832;-70
2022/03/17 01:02:17;;;;;;;23.50;16.15;;;;;;;;;;4970655;28;96844;-70
2022/03/17 01:04:43;;;;;;;21.38;16.85;;;;;;;;;;4969452;28;92446;-70
2022/03/17 01:07:09;;;;;;;25.90;17.20;;;;;;;;;;4970675;28;92483;-70
2022/03/17 01:09:36;;;;;;;23.70;16.60;;;;;;;;;;4973737;28;93535;-70
2022/03/17 01:12:02;;;;;;;28.77;17.13;;;;;;;;;;4973478;28;93935;-70
2022/03/17 01:14:28;;;;;;;29.77;17.98;;;;;;;;;;4971195;28;92898;-70
2022/03/17 01:16:55;;;;;;;26.40;16.83;;;;;;;;;;4974463;28;92556;-70
2022/03/17 01:19:21;;;;;;;27.58;17.50;;;;;;;;;;4974228;28;92457;-70
2022/03/17 01:21:50;;;;;;;30.98;18.15;;;;;;;;;;4974072;28;93166;-70
2022/03/17 01:24:17;;;;;;;23.77;18.17;;;;;;;;;;4966048;28;96398;-70
2022/03/17 01:26:44;;;;;;;24.58;18.10;;;;;;;;;;4960973;28;92749;-70
2022/03/17 01:29:14;;;;;;;27.77;18.20;;;;;;;;;;4968517;28;93414;-69
2022/03/17 01:31:40;;;;;;;25.90;17.38;;;;;;;;;;4974116;28;93433;-69
2022/03/17 01:34:06;;;;;;;28.27;18.00;;;;;;;;;;4967750;28;92459;-69
2022/03/17 01:36:32;;;;;;;28.45;18.50;;;;;;;;;;4976124;28;93030;-69
2022/03/17 01:38:59;;;;;;;23.95;16.88;;;;;;;;;;4973586;28;92463;-69
2022/03/17 01:41:25;;;;;;;25.92;18.25;;;;;;;;;;4973574;28;96991;-69
2022/03/17 01:43:51;;;;;;;28.45;17.88;;;;;;;;;;4967936;28;93651;-69
2022/03/17 01:46:18;;;;;;;27.17;18.20;;;;;;;;;;4974262;28;92442;-69
2022/03/17 01:48:44;;;;;;;36.30;18.30;;;;;;;;;;4972001;28;94844;-70
2022/03/17 01:51:11;;;;;;;28.67;18.42;;;;;;;;;;4972762;28;93718;-69
2022/03/17 01:53:38;;;;;;;26.08;17.75;;;;;;;;;;4973455;28;92773;-69
2022/03/17 01:56:04;;;;;;;25.73;18.27;;;;;;;;;;4976770;28;92329;-70
2022/03/17 01:58:31;;;;;;;28.48;18.83;;;;;;;;;;4962207;28;92510;-70
2022/03/17 02:00:57;;;;;;;27.98;17.85;;;;;;;;;;4959561;28;93547;-69
2022/03/17 02:03:26;;;;;;;28.23;18.45;;;;;;;;;;4972515;28;95758;-69
2022/03/17 02:05:53;;;;;;;26.95;18.70;;;;;;;;;;4972962;28;93624;-69
2022/03/17 02:08:20;;;;;;;27.70;18.70;;;;;;;;;;4973815;28;93101;-70
2022/03/17 02:13:31;;;;;;;28.15;19.08;;;;;;;;;;4966918;28;95094;-69
2022/03/17 02:15:57;;;;;;;29.83;18.55;;;;;;;;;;4966697;28;95613;-70
2022/03/17 02:18:23;;;;;;;27.50;18.65;;;;;;;;;;4970381;28;92420;-70
2022/03/17 02:20:50;;;;;;;31.88;19.15;;;;;;;;;;4972697;28;93435;-70
2022/03/17 02:26:04;;;;;;;28.17;19.13;;;;;;;;;;4972586;28;92444;-70
2022/03/17 02:28:31;;;;;;;30.33;19.33;;;;;;;;;;4966027;28;93114;-70
2022/03/17 02:30:58;;;;;;;30.45;18.40;;;;;;;;;;4972949;28;92734;-70
2022/03/17 02:33:25;;;;;;;32.05;19.88;;;;;;;;;;4968679;28;92455;-70
2022/03/17 02:35:53;;;;;;;34.75;18.65;;;;;;;;;;4962740;28;93534;-70
2022/03/17 02:38:20;;;;;;;29.27;19.77;;;;;;;;;;4961563;28;95883;-69
2022/03/17 02:40:48;;;;;;;31.50;20.17;;;;;;;;;;4968985;28;92606;-69
2022/03/17 02:43:15;;;;;;;30.90;21.05;;;;;;;;;;4955406;28;93571;-70
2022/03/17 02:45:42;;;;;;;31.40;20.75;;;;;;;;;;4971060;28;92529;-70
2022/03/17 02:48:08;;;;;;;35.08;21.83;;;;;;;;;;4962264;28;93648;-70
2022/03/17 02:50:35;;;;;;;35.00;21.88;;;;;;;;;;4954159;28;92472;-70
2022/03/17 02:53:05;;;;;;;45.30;22.75;;;;;;;;;;4964130;28;92679;-70
2022/03/17 02:55:35;;;;;;;36.67;22.08;;;;;;;;;;4972999;28;93560;-70
2022/03/17 02:58:02;;;;;;;36.72;22.75;;;;;;;;;;4969307;28;93613;-70
2022/03/17 03:00:28;;;;;;;38.92;22.38;;;;;;;;;;4972882;28;92762;-70
2022/03/17 03:02:55;;;;;;;38.35;22.05;;;;;;;;;;4972935;28;95611;-70
2022/03/17 03:05:22;;;;;;;33.75;21.95;;;;;;;;;;4971811;28;92481;-70
2022/03/17 03:07:48;;;;;;;39.65;24.05;;;;;;;;;;4971442;28;93362;-70
2022/03/17 03:10:15;;;;;;;40.10;22.95;;;;;;;;;;4971737;28;93614;-70
2022/03/17 03:12:41;;;;;;;39.72;21.83;;;;;;;;;;4971850;28;92472;-70
2022/03/17 03:15:09;;;;;;;31.70;20.05;;;;;;;;;;4972403;28;93435;-70
2022/03/17 03:17:35;;;;;;;28.73;18.38;;;;;;;;;;4968232;28;93504;-70
2022/03/17 03:20:02;;;;;;;26.10;16.80;;;;;;;;;;4952213;28;91855;-70
2022/03/17 03:22:29;;;;;;;21.30;13.75;;;;;;;;;;4971235;28;92967;-70
2022/03/17 03:24:57;;;;;;;11.55;8.30;;;;;;;;;;4973835;28;93800;-70
2022/03/17 03:27:27;;;;;;;10.77;6.50;;;;;;;;;;4970815;28;94856;-70
2022/03/17 03:29:54;;;;;;;8.73;6.93;;;;;;;;;;4957186;28;93410;-70
2022/03/17 03:32:20;;;;;;;8.23;5.18;;;;;;;;;;4963035;28;92482;-70
2022/03/17 03:34:47;;;;;;;5.72;3.97;;;;;;;;;;4973169;28;93236;-70
2022/03/17 03:37:25;;;;;;;6.03;4.13;;;;;;;;;;4973120;28;93580;-70
2022/03/17 03:39:53;;;;;;;6.22;4.18;;;;;;;;;;4970096;28;92583;-70
2022/03/17 03:42:19;;;;;;;5.10;3.63;;;;;;;;;;4971282;28;93183;-71
2022/03/17 03:44:46;;;;;;;6.53;3.50;;;;;;;;;;4973124;28;92580;-70
2022/03/17 03:47:13;;;;;;;5.25;3.80;;;;;;;;;;4968421;28;92615;-70
2022/03/17 03:49:40;;;;;;;8.88;3.85;;;;;;;;;;4954374;28;93961;-70
2022/03/17 03:52:14;;;;;;;3.78;3.03;;;;;;;;;;4968033;28;94847;-70
2022/03/17 03:54:41;;;;;;;3.58;2.92;;;;;;;;;;4972912;28;95844;-70
2022/03/17 03:57:07;;;;;;;4.75;3.10;;;;;;;;;;4965844;28;93245;-70
2022/03/17 03:59:34;;;;;;;5.22;3.35;;;;;;;;;;4971931;28;92499;-70
2022/03/17 04:02:01;;;;;;;7.32;3.78;;;;;;;;;;4972539;28;93215;-70
2022/03/17 04:04:28;;;;;;;6.78;3.53;;;;;;;;;;4972158;28;94020;-70
2022/03/17 04:06:56;;;;;;;11.60;3.95;;;;;;;;;;4968276;28;93048;-70
2022/03/17 04:09:24;;;;;;;8.10;4.18;;;;;;;;;;4973273;28;93036;-70
2022/03/17 04:11:50;;;;;;;6.13;4.35;;;;;;;;;;4966878;28;92514;-70
2022/03/17 04:14:16;;;;;;;7.07;4.93;;;;;;;;;;4971631;28;93282;-70
2022/03/17 04:16:43;;;;;;;8.93;4.97;;;;;;;;;;4970059;28;95852;-70
2022/03/17 04:19:10;;;;;;;12.70;5.40;;;;;;;;;;4963176;28;93140;-70
2022/03/17 04:21:36;;;;;;;19.48;6.15;;;;;;;;;;4970895;28;92655;-70
2022/03/17 04:24:03;;;;;;;14.90;6.45;;;;;;;;;;4972913;28;94442;-70
2022/03/17 04:26:29;;;;;;;17.88;6.55;;;;;;;;;;4970989;28;92787;-70
2022/03/17 04:28:56;;;;;;;15.63;7.25;;;;;;;;;;4973153;28;93022;-69
2022/03/17 04:31:22;;;;;;;12.82;6.22;;;;;;;;;;4972879;28;92516;-69
2022/03/17 04:33:49;;;;;;;19.00;7.43;;;;;;;;;;4953527;28;93144;-69
2022/03/17 04:36:16;;;;;;;13.75;7.53;;;;;;;;;;4964688;28;93299;-70
2022/03/17 04:38:42;;;;;;;18.08;8.95;;;;;;;;;;4969896;28;92536;-70
2022/03/17 04:41:10;;;;;;;15.30;8.48;;;;;;;;;;4959172;28;95031;-70
2022/03/17 04:43:37;;;;;;;15.00;7.85;;;;;;;;;;4972112;28;95511;-70
2022/03/17 04:46:03;;;;;;;24.25;8.30;;;;;;;;;;4974000;28;92991;-70
2022/03/17 04:48:31;;;;;;;19.77;7.63;;;;;;;;;;4970925;28;93199;-70
2022/03/17 04:50:57;;;;;;;25.30;7.68;;;;;;;;;;4969327;28;93820;-70
2022/03/17 04:53:30;;;;;;;18.85;6.40;;;;;;;;;;4975682;28;93278;-70
2022/03/17 04:55:56;;;;;;;21.20;5.97;;;;;;;;;;4955331;28;93459;-70
2022/03/17 04:58:22;;;;;;;19.92;4.93;;;;;;;;;;4972482;28;91757;-70
2022/03/17 05:00:50;;;;;;;13.13;3.75;;;;;;;;;;4970470;28;92727;-70
2022/03/17 05:03:16;;;;;;;22.40;4.03;;;;;;;;;;4975133;28;94003;-70
2022/03/17 05:05:43;;;;;;;24.02;4.65;;;;;;;;;;4973919;28;95480;-69
2022/03/17 05:08:09;;;;;;;20.65;3.97;;;;;;;;;;4972346;28;95554;-70
2022/03/17 05:10:35;;;;;;;20.52;4.40;;;;;;;;;;4971016;28;93571;-70
2022/03/17 05:13:05;;;;;;;20.60;4.10;;;;;;;;;;4963620;28;92566;-69
2022/03/17 05:15:31;;;;;;;25.92;4.28;;;;;;;;;;4967656;28;93621;-69
2022/03/17 05:17:58;;;;;;;21.35;3.70;;;;;;;;;;4974463;28;93287;-69
2022/03/17 05:20:24;;;;;;;18.15;4.35;;;;;;;;;;4973051;28;92432;-70
2022/03/17 05:22:51;;;;;;;20.38;3.78;;;;;;;;;;4971347;28;92864;-69
2022/03/17 05:25:18;;;;;;;21.80;3.17;;;;;;;;;;4973750;28;93439;-70
2022/03/17 05:27:45;;;;;;;17.67;3.70;;;;;;;;;;4975737;28;93444;-70
2022/03/17 05:30:15;;;;;;;18.98;3.17;;;;;;;;;;4957902;28;95972;-70
2022/03/17 05:32:46;;;;;;;15.70;2.90;;;;;;;;;;4974868;28;92417;-70
2022/03/17 05:35:13;;;;;;;14.30;3.13;;;;;;;;;;4977813;28;93220;-70
2022/03/17 05:37:39;;;;;;;13.32;2.53;;;;;;;;;;4974829;28;92650;-70
2022/03/17 05:40:09;;;;;;;10.95;2.90;;;;;;;;;;4958453;28;92669;-69
2022/03/17 05:42:35;;;;;;;21.67;2.45;;;;;;;;;;4968709;28;93535;-70
2022/03/17 05:45:03;;;;;;;18.88;3.03;;;;;;;;;;4975021;28;92484;-69
2022/03/17 05:47:36;;;;;;;14.98;3.15;;;;;;;;;;4975603;28;94424;-70
2022/03/17 05:50:04;;;;;;;14.88;2.72;;;;;;;;;;4973700;28;93965;-70
2022/03/17 05:52:31;;;;;;;15.23;3.75;;;;;;;;;;4974650;28;92527;-70
2022/03/17 05:54:58;;;;;;;15.68;2.50;;;;;;;;;;4971087;28;95184;-69
2022/03/17 05:57:24;;;;;;;14.30;2.85;;;;;;;;;;4977339;28;94502;-70
2022/03/17 05:59:50;;;;;;;10.55;2.42;;;;;;;;;;4965094;28;93349;-70
2022/03/17 06:02:16;;;;;;;13.85;2.65;;;;;;;;;;4970602;28;93593;-69
2022/03/17 06:04:43;;;;;;;16.55;3.10;;;;;;;;;;4964762;28;93131;-70
2022/03/17 06:07:10;;;;;;;15.77;3.42;;;;;;;;;;4972557;28;93204;-70
2022/03/17 06:09:38;;;;;;;21.30;3.13;;;;;;;;;;4973686;28;93857;-69
2022/03/17 06:12:05;;;;;;;24.20;2.63;;;;;;;;;;4974026;28;91695;-70
2022/03/17 06:14:32;;;;;;;13.27;2.47;;;;;;;;;;4974086;28;92758;-70
2022/03/17 06:16:59;;;;;;;25.65;3.42;;;;;;;;;;4976622;28;93639;-69
2022/03/17 06:19:26;;;;;;;17.65;2.95;;;;;;;;;;4963106;28;94852;-69
2022/03/17 06:21:52;;;;;;;14.90;2.67;;;;;;;;;;4972542;28;93378;-69
2022/03/17 06:24:19;;;;;;;21.08;3.25;;;;;;;;;;4973174;28;92426;-69
2022/03/17 06:26:45;;;;;;;22.27;3.38;;;;;;;;;;4974591;28;94179;-69
2022/03/17 06:29:11;;;;;;;25.40;4.18;;;;;;;;;;4972231;28;93358;-70
2022/03/17 06:31:38;;;;;;;22.35;3.67;;;;;;;;;;4974235;28;92434;-69
2022/03/17 06:34:05;;;;;;;18.17;3.47;;;;;;;;;;4972461;28;94340;-69
2022/03/17 06:36:31;;;;;;;22.67;3.42;;;;;;;;;;4973844;28;93102;-69
2022/03/17 06:38:57;;;;;;;20.63;3.55;;;;;;;;;;4970730;28;94201;-70
2022/03/17 06:41:24;;;;;;;17.67;2.88;;;;;;;;;;4973104;28;93408;-69
2022/03/17 06:43:50;;;;;;;15.93;2.78;;;;;;;;;;4972428;28;94821;-70
2022/03/17 06:46:16;;;;;;;15.85;2.80;;;;;;;;;;4982317;28;95632;-70
2022/03/17 06:48:43;;;;;;;18.05;3.25;;;;;;;;;;4972098;28;93433;-70
2022/03/17 06:51:10;;;;;;;22.65;4.95;;;;;;;;;;4973887;28;92848;-70
2022/03/17 06:53:36;;;;;;;26.58;3.50;;;;;;;;;;4971077;28;93196;-69
2022/03/17 06:56:03;;;;;;;33.20;4.55;;;;;;;;;;4973624;28;94944;-69
2022/03/17 06:58:30;;;;;;;29.67;3.80;;;;;;;;;;4971498;28;93934;-70
2022/03/17 07:00:57;;;;;;;22.38;3.70;;;;;;;;;;4963012;28;92036;-70
2022/03/17 07:03:23;;;;;;;20.85;4.20;;;;;;;;;;4973512;28;92452;-70
2022/03/17 07:05:50;;;;;;;22.63;3.25;;;;;;;;;;4971351;28;94123;-70
2022/03/17 07:08:16;;;;;;;19.70;2.83;;;;;;;;;;4959909;28;96610;-69
2022/03/17 07:10:42;;;;;;;24.75;3.42;;;;;;;;;;4970571;28;92480;-70
2022/03/17 07:13:09;;;;;;;24.25;3.47;;;;;;;;;;4964070;28;93182;-69
2022/03/17 07:15:35;;;;;;;20.27;3.22;;;;;;;;;;4957655;28;93562;-70
2022/03/17 07:18:01;;;;;;;27.83;3.58;;;;;;;;;;4960637;28;92427;-70
2022/03/17 07:20:28;;;;;;;15.95;2.40;;;;;;;;;;4962879;28;93126;-70
2022/03/17 07:22:54;;;;;;;19.75;3.72;;;;;;;;;;4964380;28;93447;-70
2022/03/17 07:25:23;;;;;;;23.88;2.97;;;;;;;;;;4962201;28;93397;-70
2022/03/17 07:27:49;;;;;;;30.98;3.50;;;;;;;;;;4972412;28;93712;-70
2022/03/17 07:30:18;;;;;;;28.20;3.25;;;;;;;;;;4969331;28;92397;-70
2022/03/17 07:32:49;;;;;;;36.88;3.85;;;;;;;;;;4956722;28;95595;-69
2022/03/17 07:35:15;;;;;;;;;;;;;;;;;;4973163;28;93564;-70
2022/03/17 07:37:42;;;;;;;19.17;3.35;;;;;;;;;;4955363;28;118554;-70
2022/03/17 07:40:08;;;;;;;18.52;3.70;;;;;;;;;;4970443;28;93418;-70
2022/03/17 07:42:35;;;;;;;30.60;3.50;;;;;;;;;;4953706;28;93944;-70
2022/03/17 07:45:01;;;;;;;25.40;3.28;;;;;;;;;;4958147;28;92735;-69
2022/03/17 07:47:28;;;;;;;18.75;3.63;;;;;;;;;;4955952;28;93466;-70
2022/03/17 07:49:54;;;;;;;22.20;3.88;;;;;;;;;;4953487;28;91728;-70
2022/03/17 07:52:20;;;;;;;19.83;2.78;;;;;;;;;;4970115;28;92599;-70
2022/03/17 07:54:47;;;;;;;16.98;2.47;;;;;;;;;;4957739;28;94663;-70
2022/03/17 07:57:14;;;;;;;24.77;3.35;;;;;;;;;;4964886;28;95118;-70
2022/03/17 07:59:41;;;;;;;19.33;2.65;;;;;;;;;;4972473;28;95619;-70
2022/03/17 08:02:07;;;;;;;17.25;2.63;;;;;;;;;;4968874;28;93549;-70
2022/03/17 08:04:35;;;;;;;17.80;2.45;;;;;;;;;;4961436;28;92604;-70
2022/03/17 08:07:01;;;;;;;16.67;2.50;;;;;;;;;;4974309;28;93279;-70
2022/03/17 08:09:28;;;;;;;14.75;2.35;;;;;;;;;;4973312;28;93594;-69
2022/03/17 08:11:54;;;;;;;18.75;2.00;;;;;;;;;;4970657;28;93363;-70
2022/03/17 08:14:21;;;;;;;18.00;1.88;;;;;;;;;;4973478;28;92815;-70
2022/03/17 08:16:48;;;;;;;24.77;2.53;;;;;;;;;;4973246;28;92437;-70
2022/03/17 08:19:14;;;;;;;22.08;2.40;;;;;;;;;;4955527;28;93672;-70
2022/03/17 08:21:41;;;;;;;15.05;2.10;;;;;;;;;;4955347;28;95972;-70
2022/03/17 08:24:07;;;;;;;15.20;1.88;;;;;;;;;;4956666;28;92436;-70
2022/03/17 08:26:34;;;;;;;15.90;2.50;;;;;;;;;;4959171;28;93383;-70
2022/03/17 08:29:01;;;;;;;26.58;2.13;;;;;;;;;;4961298;28;92473;-70
2022/03/17 08:31:27;;;;;;;14.30;1.98;;;;;;;;;;4974619;28;93248;-70
2022/03/17 08:33:56;;;;;;;13.50;2.60;;;;;;;;;;4975326;28;93298;-69
2022/03/17 08:36:23;;;;;;;15.90;3.65;;;;;;;;;;4964436;28;92557;-70
2022/03/17 08:38:50;;;;;;;13.77;2.17;;;;;;;;;;4967316;28;94156;-70
2022/03/17 08:41:18;;;;;;;24.42;2.78;;;;;;;;;;4956479;28;95349;-70
2022/03/17 08:43:45;;;;;;;19.27;2.30;;;;;;;;;;4956578;28;92512;-70
2022/03/17 08:51:42;;;;;;;27.98;2.85;;;;;;;;;;4971920;28;93205;-70
2022/03/17 08:54:10;;;;;;;17.48;2.60;;;;;;;;;;4955333;28;94625;-70
2022/03/17 08:56:37;;;;;;;20.58;2.78;;;;;;;;;;4955224;28;92370;-70
2022/03/17 08:59:04;;;;;;;17.20;2.53;;;;;;;;;;4955667;28;92719;-70
2022/03/17 09:01:30;;;;;;;18.88;2.33;;;;;;;;;;4956341;28;93798;-70
2022/03/17 09:03:57;;;;;;;27.67;3.15;;;;;;;;;;4954447;28;91714;-70
2022/03/17 09:06:24;;;;;;;20.70;3.08;;;;;;;;;;4955787;28;95329;-70
2022/03/17 09:08:50;;;;;;;20.65;2.53;;;;;;;;;;4955983;28;94599;-70
2022/03/17 09:11:17;;;;;;;20.60;2.83;;;;;;;;;;4989324;28;94912;-70
2022/03/17 09:13:43;;;;;;;18.63;2.72;;;;;;;;;;4958553;28;93304;-70
2022/03/17 09:16:10;;;;;;;24.25;3.63;;;;;;;;;;4965279;28;92557;-70
2022/03/17 09:18:36;;;;;;;17.60;2.83;;;;;;;;;;4975423;28;93809;-70
2022/03/17 09:21:06;;;;;;;19.67;2.72;;;;;;;;;;4975174;28;93472;-70
2022/03/17 09:23:33;;;;;;;15.23;2.50;;;;;;;;;;4975206;28;92373;-70
2022/03/17 09:25:59;;;;;;;13.85;2.67;;;;;;;;;;4975039;28;93018;-70
2022/03/17 09:28:28;;;;;;;14.93;2.20;;;;;;;;;;4975586;28;93302;-70
2022/03/17 09:30:54;;;;;;;19.65;2.63;;;;;;;;;;4974652;28;92386;-70
2022/03/17 09:33:25;;;;;;;16.08;2.15;;;;;;;;;;4977736;28;93336;-70
2022/03/17 09:35:55;;;;;;;16.98;2.28;;;;;;;;;;4973656;28;94830;-70
2022/03/17 09:38:21;;;;;;;;;;;;;;;;;;4960915;28;96037;-70
2022/03/17 09:40:48;;;;;;;11.02;1.85;;;;;;;;;;4956151;28;122440;-71
2022/03/17 09:43:28;;;;;;;19.67;2.65;;;;;;;;;;4955755;28;93433;-70
2022/03/17 09:45:55;;;;;;;14.50;2.53;;;;;;;;;;4958057;28;94022;-70
2022/03/17 09:48:23;;;;;;;12.73;1.73;;;;;;;;;;4971969;28;93522;-70
2022/03/17 09:50:54;;;;;;;12.30;2.00;;;;;;;;;;4974852;28;92469;-70
2022/03/17 09:53:26;;;;;;;18.20;2.70;;;;;;;;;;4975364;28;93436;-71
2022/03/17 09:55:52;;;;;;;12.15;2.08;;;;;;;;;;4977637;28;93660;-70
2022/03/17 09:58:19;;;;;;;14.55;2.00;;;;;;;;;;4975155;28;93049;-70
2022/03/17 10:00:48;;;;;;;11.55;2.33;;;;;;;;;;4972549;28;97273;-71
2022/03/17 10:03:18;;;;;;;13.02;2.00;;;;;;;;;;4961659;28;92431;-71
2022/03/17 10:05:45;;;;;;;;;;;;;;;;;;4970850;28;94984;-71
2022/03/17 10:08:14;;;;;;;10.23;1.98;;;;;;;;;;4974558;28;124635;-71
2022/03/17 10:10:41;;;;;;;12.02;1.77;;;;;;;;;;4974499;28;92483;-70
2022/03/17 10:13:17;;;;;;;8.95;1.83;;;;;;;;;;4974281;28;93200;-71
2022/03/17 10:16:04;;;;;;;13.75;2.40;;;;;;;;;;4972186;28;93500;-71
2022/03/17 10:18:30;;;;;;;13.30;1.35;;;;;;;;;;4976690;28;91650;-71
2022/03/17 10:21:06;;;;;;;16.83;2.15;;;;;;;;;;4966643;28;94313;-71
2022/03/17 10:23:33;;;;;;;6.80;1.92;;;;;;;;;;4955012;28;92409;-71
2022/03/17 10:26:04;;;;;;;10.38;1.73;;;;;;;;;;4953173;28;94747;-71
2022/03/17 10:28:30;;;;;;;10.88;1.73;;;;;;;;;;4954825;28;93504;-71
2022/03/17 10:31:03;;;;;;;5.45;1.50;;;;;;;;;;4954283;28;92438;-71
2022/03/17 10:33:31;;;;;;;5.90;1.60;;;;;;;;;;4989510;28;93242;-71
2022/03/17 10:36:20;;;;;;;8.88;2.10;;;;;;;;;;4971649;28;93308;-71
2022/03/17 10:38:49;;;;;;;12.20;2.07;;;;;;;;;;4976980;28;92535;-71
2022/03/17 10:41:16;;;;;;;11.25;2.55;;;;;;;;;;4973064;28;93618;-71
2022/03/17 10:43:43;;;;;;;7.82;2.17;;;;;;;;;;4974054;28;91662;-71
2022/03/17 10:46:11;;;;;;;9.68;2.33;;;;;;;;;;4973535;28;92724;-71
2022/03/17 10:48:53;;;;;;;7.88;1.77;;;;;;;;;;4974636;28;93796;-71
2022/03/17 10:51:49;;;;;;;11.48;1.88;;;;;;;;;;4963636;28;94845;-71
2022/03/17 10:54:19;;;;;;;9.07;2.13;;;;;;;;;;4957367;28;95764;-71
2022/03/17 10:57:08;;;;;;;7.10;2.05;;;;;;;;;;4953133;28;92992;-71
2022/03/17 10:59:38;;;;;;;9.82;2.20;;;;;;;;;;4953119;28;92693;-71
2022/03/17 11:02:08;;;;;;;9.85;2.08;;;;;;;;;;4969085;28;94318;-71
2022/03/17 11:04:36;;;;;;;15.05;1.98;;;;;;;;;;4973868;28;93007;-71
2022/03/17 11:07:04;;;;;;;11.75;2.30;;;;;;;;;;4972806;28;93425;-71
2022/03/17 11:09:31;;;;;;;10.07;1.65;;;;;;;;;;4974406;28;93058;-82
2022/03/17 11:11:57;;;;;;;7.80;1.88;;;;;;;;;;4959258;28;92492;-71
2022/03/17 11:14:24;;;;;;;11.13;2.35;;;;;;;;;;4953844;28;92441;-71
2022/03/17 11:16:51;;;;;;;11.00;2.10;;;;;;;;;;4957065;28;95844;-71
2022/03/17 11:19:18;;;;;;;6.10;1.65;;;;;;;;;;4972009;28;92600;-71
2022/03/17 11:21:46;;;;;;;10.55;2.35;;;;;;;;;;4970155;28;92966;-71
2022/03/17 11:24:19;;;;;;;8.77;1.80;;;;;;;;;;4976562;28;94372;-72
2022/03/17 11:26:46;;;;;;;8.63;1.80;;;;;;;;;;4971628;28;93024;-72
2022/03/17 11:29:13;;;;;;;13.48;2.05;;;;;;;;;;4971560;28;94266;-71
2022/03/17 11:31:50;;;;;;;14.18;1.73;;;;;;;;;;4960308;28;92736;-71
2022/03/17 11:34:38;;;;;;;6.78;1.90;;;;;;;;;;4954712;28;93519;-71
2022/03/17 11:37:16;;;;;;;6.45;1.92;;;;;;;;;;4953783;28;96747;-71
2022/03/17 11:39:55;;;;;;;6.40;2.33;;;;;;;;;;4952416;28;92589;-71
2022/03/17 11:42:28;;;;;;;8.13;2.30;;;;;;;;;;4952924;28;94832;-71
2022/03/17 11:45:30;;;;;;;22.45;3.40;;;;;;;;;;4954223;28;93693;-71
2022/03/17 11:47:57;;;;;;;8.00;2.00;;;;;;;;;;4955266;28;92433;-71
2022/03/17 11:50:32;;;;;;;8.30;2.23;;;;;;;;;;4953658;28;93994;-71
2022/03/17 11:53:05;;;;;;;28.42;2.35;;;;;;;;;;4971339;28;92704;-72
2022/03/17 11:55:48;;;;;;;9.57;2.08;;;;;;;;;;4973220;28;93421;-72
2022/03/17 11:58:17;;;;;;;7.82;2.22;;;;;;;;;;4971688;28;92497;-72
2022/03/17 12:00:44;;;;;;;14.77;2.40;;;;;;;;;;4963858;28;91840;-71
2022/03/17 12:03:11;;;;;;;11.23;2.15;;;;;;;;;;4953331;28;93472;-72
2022/03/17 12:05:42;;;;;;;12.68;2.95;;;;;;;;;;4971135;28;92786;-71
2022/03/17 12:08:08;;;;;;;5.32;1.52;;;;;;;;;;4934694;28;94874;-71
2022/03/17 12:10:53;;;;;;;17.13;2.20;;;;;;;;;;4956118;28;95360;-71
2022/03/17 12:13:24;;;;;;;8.10;1.90;;;;;;;;;;4952212;28;93622;-73
2022/03/17 12:15:55;;;;;;;7.53;1.80;;;;;;;;;;4961581;28;92973;-72
2022/03/17 12:18:21;;;;;;;14.43;2.58;;;;;;;;;;4971576;28;94838;-71
2022/03/17 12:20:50;;;;;;;10.93;2.30;;;;;;;;;;4966737;28;92421;-71
2022/03/17 12:23:36;;;;;;;9.63;2.50;;;;;;;;;;4952512;28;93166;-71
2022/03/17 12:26:05;;;;;;;6.50;2.17;;;;;;;;;;4968093;28;93175;-71
2022/03/17 12:28:32;;;;;;;12.65;2.42;;;;;;;;;;4953583;28;92391;-71
2022/03/17 12:30:58;;;;;;;10.57;2.50;;;;;;;;;;4969959;28;93513;-71
2022/03/17 12:33:25;;;;;;;11.43;2.28;;;;;;;;;;4971544;28;94848;-71
2022/03/17 12:36:14;;;;;;;7.50;2.00;;;;;;;;;;4972401;28;95555;-71
2022/03/17 12:38:40;;;;;;;16.30;2.58;;;;;;;;;;4971368;28;93624;-71
2022/03/17 12:41:12;;;;;;;13.65;2.22;;;;;;;;;;4970528;28;92656;-71
2022/03/17 12:43:39;;;;;;;9.25;2.30;;;;;;;;;;4972717;28;93208;-71
2022/03/17 12:46:05;;;;;;;12.15;2.80;;;;;;;;;;4961638;28;93587;-72
2022/03/17 12:48:31;;;;;;;9.60;1.88;;;;;;;;;;4953186;28;92502;-72
2022/03/17 12:51:05;;;;;;;15.00;2.42;;;;;;;;;;4953871;28;93531;-71
2022/03/17 12:53:31;;;;;;;12.95;2.47;;;;;;;;;;4958237;28;93919;-71
2022/03/17 12:55:58;;;;;;;8.85;1.98;;;;;;;;;;4972190;28;93585;-72
2022/03/17 12:58:24;;;;;;;15.40;2.60;;;;;;;;;;4970631;28;95683;-72
2022/03/17 13:00:51;;;;;;;7.75;2.08;;;;;;;;;;4972135;28;92482;-72
2022/03/17 13:03:25;;;;;;;9.70;2.50;;;;;;;;;;4972289;28;93457;-72
2022/03/17 13:08:38;;;;;;;7.10;1.80;;;;;;;;;;4958625;28;92501;-72
2022/03/17 13:16:44;;;;;;;11.15;2.05;;;;;;;;;;4974952;28;91695;-72
2022/03/17 13:19:10;;;;;;;6.60;2.13;;;;;;;;;;4956180;28;93413;-71
2022/03/17 13:21:38;;;;;;;8.13;1.88;;;;;;;;;;4967508;28;92482;-71
2022/03/17 13:24:17;;;;;;;12.80;2.38;;;;;;;;;;4973136;28;94786;-71
2022/03/17 13:26:56;;;;;;;10.05;2.42;;;;;;;;;;4975430;28;93241;-71
2022/03/17 13:29:34;;;;;;;9.07;2.17;;;;;;;;;;4975463;28;92433;-71
2022/03/17 13:32:02;;;;;;;8.00;2.22;;;;;;;;;;4972901;28;93225;-71
2022/03/17 13:34:30;;;;;;;11.07;2.63;;;;;;;;;;4955972;28;93440;-71
2022/03/17 13:36:57;;;;;;;17.50;2.65;;;;;;;;;;4954479;28;92487;-71
2022/03/17 13:39:31;;;;;;;10.65;2.28;;;;;;;;;;4958483;28;93436;-71
2022/03/17 13:41:58;;;;;;;9.35;2.83;;;;;;;;;;4956436;28;91706;-71
2022/03/17 13:44:40;;;;;;;8.48;1.70;;;;;;;;;;4955824;28;92530;-72
2022/03/17 13:47:10;;;;;;;11.15;2.20;;;;;;;;;;4968071;28;93637;-71
2022/03/17 13:49:37;;;;;;;8.05;2.33;;;;;;;;;;4954326;28;94864;-71
2022/03/17 13:52:03;;;;;;;12.68;2.20;;;;;;;;;;4954732;28;95596;-71
2022/03/17 13:54:37;;;;;;;10.40;2.15;;;;;;;;;;4989553;28;93497;-71
2022/03/17 13:57:03;;;;;;;13.65;2.20;;;;;;;;;;4974054;28;92425;-71
2022/03/17 13:59:31;;;;;;;11.48;2.72;;;;;;;;;;4975308;28;93350;-71
2022/03/17 14:02:10;;;;;;;9.00;2.45;;;;;;;;;;4976963;28;94465;-72
2022/03/17 14:04:36;;;;;;;10.30;2.13;;;;;;;;;;4955586;28;94233;-72
2022/03/17 14:07:03;;;;;;;11.82;2.35;;;;;;;;;;4967666;28;93066;-70
2022/03/17 14:09:29;;;;;;;10.30;2.30;;;;;;;;;;4973196;28;92418;-70
2022/03/17 14:11:56;;;;;;;14.50;2.05;;;;;;;;;;4973364;28;93130;-70
2022/03/17 14:14:22;;;;;;;5.50;1.95;;;;;;;;;;4972972;28;94942;-70
2022/03/17 14:16:48;;;;;;;10.25;2.03;;;;;;;;;;4966396;28;92650;-70
2022/03/17 14:19:15;;;;;;;18.70;2.30;;;;;;;;;;4955235;28;94329;-70
2022/03/17 14:24:46;;;;;;;12.65;1.95;;;;;;;;;;4994987;28;92509;-70
2022/03/17 14:27:12;;;;;;;8.38;2.55;;;;;;;;;;4992097;28;93483;-70
2022/03/17 14:29:39;;;;;;;7.38;1.60;;;;;;;;;;4988344;28;92580;-71
2022/03/17 14:32:05;;;;;;;18.00;2.45;;;;;;;;;;4961546;28;94405;-72
2022/03/17 14:34:31;;;;;;;8.98;1.90;;;;;;;;;;4971713;28;93582;-72
2022/03/17 14:36:58;;;;;;;13.10;2.40;;;;;;;;;;4972110;28;93384;-72
2022/03/17 14:39:24;;;;;;;14.35;2.20;;;;;;;;;;4970458;28;94846;-72
2022/03/17 14:41:52;;;;;;;10.98;2.20;;;;;;;;;;4970308;28;93796;-71
2022/03/17 14:44:20;;;;;;;8.10;2.17;;;;;;;;;;4993921;28;92576;-71
2022/03/17 14:46:46;;;;;;;6.55;2.03;;;;;;;;;;4983963;28;92743;-72
2022/03/17 14:49:13;;;;;;;9.23;2.35;;;;;;;;;;4975386;28;92608;-72
2022/03/17 14:51:41;;;;;;;11.63;2.00;;;;;;;;;;4973795;28;96165;-72
2022/03/17 14:54:27;;;;;;;12.15;2.00;;;;;;;;;;4990895;28;92574;-72
2022/03/17 14:56:53;;;;;;;12.85;2.60;;;;;;;;;;4955140;28;91993;-71
2022/03/17 14:59:20;;;;;;;11.45;2.33;;;;;;;;;;4966662;28;92554;-72
2022/03/17 15:01:46;;;;;;;9.30;2.08;;;;;;;;;;4971351;28;93278;-71